<?xml version="1.0" encoding="UTF-8" standalone="no" ?>
<gpx xmlns="http://www.topografix.com/GPX/1/1" xmlns:xsi="http://www.w3.org/2001/XMLSchema-instance" xsi:schemaLocation="http://www.topografix.com/GPX/1/1 http://www.topografix.com/GPX/1/1/gpx.xsd" version="1.1" creator="VisuGPX - https://www.visugpx.com">
  <metadata>
    <name>combe vaumale</name>
    <desc><![CDATA[Proposée par Mireille pour Gransrandonnée]]></desc>
  </metadata>
  <trk>
    <name><![CDATA[combe vaumale]]></name>
    <trkseg>
      <trkpt lat="43.94549" lon="5.29483">
        <ele>281.7</ele>
        <time>2021-03-13T08:11:59Z</time>
      </trkpt>
      <trkpt lat="43.94562" lon="5.29503">
        <ele>282</ele>
        <time>2021-03-13T08:13:31Z</time>
      </trkpt>
      <trkpt lat="43.94561" lon="5.2951">
        <ele>282.2</ele>
        <time>2021-03-13T08:14:07Z</time>
      </trkpt>
      <trkpt lat="43.94562" lon="5.29501">
        <ele>282</ele>
        <time>2021-03-13T08:15:21Z</time>
      </trkpt>
      <trkpt lat="43.9455" lon="5.29485">
        <ele>281.7</ele>
        <time>2021-03-13T08:17:29Z</time>
      </trkpt>
      <trkpt lat="43.94546" lon="5.29461">
        <ele>282</ele>
        <time>2021-03-13T08:24:09Z</time>
      </trkpt>
      <trkpt lat="43.94541" lon="5.29431">
        <ele>282.2</ele>
        <time>2021-03-13T08:24:36Z</time>
      </trkpt>
      <trkpt lat="43.94532" lon="5.29403">
        <ele>281.7</ele>
        <time>2021-03-13T08:24:58Z</time>
      </trkpt>
      <trkpt lat="43.94519" lon="5.29378">
        <ele>280.6</ele>
        <time>2021-03-13T08:25:23Z</time>
      </trkpt>
      <trkpt lat="43.94527" lon="5.29352">
        <ele>281.3</ele>
        <time>2021-03-13T08:25:51Z</time>
      </trkpt>
      <trkpt lat="43.94535" lon="5.29323">
        <ele>282.1</ele>
        <time>2021-03-13T08:26:09Z</time>
      </trkpt>
      <trkpt lat="43.94533" lon="5.29293">
        <ele>282.7</ele>
        <time>2021-03-13T08:26:31Z</time>
      </trkpt>
      <trkpt lat="43.94522" lon="5.29266">
        <ele>282.5</ele>
        <time>2021-03-13T08:27:26Z</time>
      </trkpt>
      <trkpt lat="43.94513" lon="5.2924">
        <ele>282.2</ele>
        <time>2021-03-13T08:27:42Z</time>
      </trkpt>
      <trkpt lat="43.94504" lon="5.29213">
        <ele>281.8</ele>
        <time>2021-03-13T08:28:02Z</time>
      </trkpt>
      <trkpt lat="43.94499" lon="5.29183">
        <ele>281.7</ele>
        <time>2021-03-13T08:28:19Z</time>
      </trkpt>
      <trkpt lat="43.94497" lon="5.29152">
        <ele>282</ele>
        <time>2021-03-13T08:28:39Z</time>
      </trkpt>
      <trkpt lat="43.94498" lon="5.29122">
        <ele>282.9</ele>
        <time>2021-03-13T08:28:59Z</time>
      </trkpt>
      <trkpt lat="43.94497" lon="5.29092">
        <ele>283.5</ele>
        <time>2021-03-13T08:29:18Z</time>
      </trkpt>
      <trkpt lat="43.94491" lon="5.29064">
        <ele>283.5</ele>
        <time>2021-03-13T08:29:35Z</time>
      </trkpt>
      <trkpt lat="43.94485" lon="5.29033">
        <ele>283.6</ele>
        <time>2021-03-13T08:29:52Z</time>
      </trkpt>
      <trkpt lat="43.94479" lon="5.29004">
        <ele>283.7</ele>
        <time>2021-03-13T08:30:12Z</time>
      </trkpt>
      <trkpt lat="43.94473" lon="5.28975">
        <ele>284.1</ele>
        <time>2021-03-13T08:30:52Z</time>
      </trkpt>
      <trkpt lat="43.94466" lon="5.28946">
        <ele>284.6</ele>
        <time>2021-03-13T08:31:11Z</time>
      </trkpt>
      <trkpt lat="43.94459" lon="5.28916">
        <ele>285.1</ele>
        <time>2021-03-13T08:31:33Z</time>
      </trkpt>
      <trkpt lat="43.94453" lon="5.28888">
        <ele>285.6</ele>
        <time>2021-03-13T08:31:55Z</time>
      </trkpt>
      <trkpt lat="43.94447" lon="5.28859">
        <ele>286.1</ele>
        <time>2021-03-13T08:32:13Z</time>
      </trkpt>
      <trkpt lat="43.94442" lon="5.28829">
        <ele>286.5</ele>
        <time>2021-03-13T08:32:32Z</time>
      </trkpt>
      <trkpt lat="43.94435" lon="5.28799">
        <ele>286.9</ele>
        <time>2021-03-13T08:32:52Z</time>
      </trkpt>
      <trkpt lat="43.94429" lon="5.2877">
        <ele>287.1</ele>
        <time>2021-03-13T08:33:12Z</time>
      </trkpt>
      <trkpt lat="43.94422" lon="5.28741">
        <ele>287.5</ele>
        <time>2021-03-13T08:33:31Z</time>
      </trkpt>
      <trkpt lat="43.94417" lon="5.28711">
        <ele>288.9</ele>
        <time>2021-03-13T08:33:49Z</time>
      </trkpt>
      <trkpt lat="43.94415" lon="5.2868">
        <ele>290.7</ele>
        <time>2021-03-13T08:34:07Z</time>
      </trkpt>
      <trkpt lat="43.94416" lon="5.2865">
        <ele>292.2</ele>
        <time>2021-03-13T08:34:25Z</time>
      </trkpt>
      <trkpt lat="43.94417" lon="5.28619">
        <ele>293.2</ele>
        <time>2021-03-13T08:34:42Z</time>
      </trkpt>
      <trkpt lat="43.94419" lon="5.28588">
        <ele>294.2</ele>
        <time>2021-03-13T08:35:01Z</time>
      </trkpt>
      <trkpt lat="43.94424" lon="5.28558">
        <ele>296.7</ele>
        <time>2021-03-13T08:35:17Z</time>
      </trkpt>
      <trkpt lat="43.94439" lon="5.28536">
        <ele>299.3</ele>
        <time>2021-03-13T08:35:39Z</time>
      </trkpt>
      <trkpt lat="43.94455" lon="5.28516">
        <ele>300.8</ele>
        <time>2021-03-13T08:35:58Z</time>
      </trkpt>
      <trkpt lat="43.94468" lon="5.28493">
        <ele>301.1</ele>
        <time>2021-03-13T08:36:21Z</time>
      </trkpt>
      <trkpt lat="43.94472" lon="5.28465">
        <ele>300.6</ele>
        <time>2021-03-13T08:36:45Z</time>
      </trkpt>
      <trkpt lat="43.9447" lon="5.28435">
        <ele>299.9</ele>
        <time>2021-03-13T08:37:12Z</time>
      </trkpt>
      <trkpt lat="43.94464" lon="5.28405">
        <ele>299.1</ele>
        <time>2021-03-13T08:37:32Z</time>
      </trkpt>
      <trkpt lat="43.94463" lon="5.28375">
        <ele>298.3</ele>
        <time>2021-03-13T08:37:54Z</time>
      </trkpt>
      <trkpt lat="43.94462" lon="5.28345">
        <ele>297.6</ele>
        <time>2021-03-13T08:38:15Z</time>
      </trkpt>
      <trkpt lat="43.94457" lon="5.28316">
        <ele>297.2</ele>
        <time>2021-03-13T08:38:34Z</time>
      </trkpt>
      <trkpt lat="43.9445" lon="5.28286">
        <ele>297.1</ele>
        <time>2021-03-13T08:38:54Z</time>
      </trkpt>
      <trkpt lat="43.94443" lon="5.28258">
        <ele>297</ele>
        <time>2021-03-13T08:39:16Z</time>
      </trkpt>
      <trkpt lat="43.94435" lon="5.28229">
        <ele>297</ele>
        <time>2021-03-13T08:39:35Z</time>
      </trkpt>
      <trkpt lat="43.94427" lon="5.28201">
        <ele>297.1</ele>
        <time>2021-03-13T08:39:53Z</time>
      </trkpt>
      <trkpt lat="43.94421" lon="5.28172">
        <ele>297.2</ele>
        <time>2021-03-13T08:40:11Z</time>
      </trkpt>
      <trkpt lat="43.94414" lon="5.28143">
        <ele>296.5</ele>
        <time>2021-03-13T08:40:29Z</time>
      </trkpt>
      <trkpt lat="43.94408" lon="5.28125">
        <ele>296.1</ele>
        <time>2021-03-13T08:41:26Z</time>
      </trkpt>
      <trkpt lat="43.94392" lon="5.28104">
        <ele>295.5</ele>
        <time>2021-03-13T08:41:44Z</time>
      </trkpt>
      <trkpt lat="43.94375" lon="5.28085">
        <ele>294.6</ele>
        <time>2021-03-13T08:42:04Z</time>
      </trkpt>
      <trkpt lat="43.94358" lon="5.28066">
        <ele>293.5</ele>
        <time>2021-03-13T08:42:24Z</time>
      </trkpt>
      <trkpt lat="43.94341" lon="5.28046">
        <ele>291.7</ele>
        <time>2021-03-13T08:42:42Z</time>
      </trkpt>
      <trkpt lat="43.94324" lon="5.28025">
        <ele>289.3</ele>
        <time>2021-03-13T08:43:00Z</time>
      </trkpt>
      <trkpt lat="43.94306" lon="5.28008">
        <ele>286.8</ele>
        <time>2021-03-13T08:43:19Z</time>
      </trkpt>
      <trkpt lat="43.94288" lon="5.27992">
        <ele>284.6</ele>
        <time>2021-03-13T08:43:38Z</time>
      </trkpt>
      <trkpt lat="43.9427" lon="5.27975">
        <ele>283</ele>
        <time>2021-03-13T08:43:55Z</time>
      </trkpt>
      <trkpt lat="43.94254" lon="5.27954">
        <ele>281.3</ele>
        <time>2021-03-13T08:44:12Z</time>
      </trkpt>
      <trkpt lat="43.94239" lon="5.27931">
        <ele>279.4</ele>
        <time>2021-03-13T08:44:30Z</time>
      </trkpt>
      <trkpt lat="43.94224" lon="5.27908">
        <ele>278.1</ele>
        <time>2021-03-13T08:44:47Z</time>
      </trkpt>
      <trkpt lat="43.9421" lon="5.27884">
        <ele>278</ele>
        <time>2021-03-13T08:45:05Z</time>
      </trkpt>
      <trkpt lat="43.94197" lon="5.27858">
        <ele>278.2</ele>
        <time>2021-03-13T08:45:22Z</time>
      </trkpt>
      <trkpt lat="43.94185" lon="5.27832">
        <ele>278.4</ele>
        <time>2021-03-13T08:45:40Z</time>
      </trkpt>
      <trkpt lat="43.9417" lon="5.2781">
        <ele>278.3</ele>
        <time>2021-03-13T08:45:59Z</time>
      </trkpt>
      <trkpt lat="43.94153" lon="5.27789">
        <ele>278.2</ele>
        <time>2021-03-13T08:46:18Z</time>
      </trkpt>
      <trkpt lat="43.94135" lon="5.27772">
        <ele>278.1</ele>
        <time>2021-03-13T08:46:38Z</time>
      </trkpt>
      <trkpt lat="43.9412" lon="5.27755">
        <ele>278.4</ele>
        <time>2021-03-13T08:47:14Z</time>
      </trkpt>
      <trkpt lat="43.94101" lon="5.2774">
        <ele>278.8</ele>
        <time>2021-03-13T08:47:32Z</time>
      </trkpt>
      <trkpt lat="43.94081" lon="5.27725">
        <ele>279.5</ele>
        <time>2021-03-13T08:47:52Z</time>
      </trkpt>
      <trkpt lat="43.94062" lon="5.27709">
        <ele>279.7</ele>
        <time>2021-03-13T08:48:10Z</time>
      </trkpt>
      <trkpt lat="43.94052" lon="5.27681">
        <ele>281.4</ele>
        <time>2021-03-13T08:48:27Z</time>
      </trkpt>
      <trkpt lat="43.94048" lon="5.27651">
        <ele>282.7</ele>
        <time>2021-03-13T08:48:45Z</time>
      </trkpt>
      <trkpt lat="43.94043" lon="5.2762">
        <ele>283.1</ele>
        <time>2021-03-13T08:49:04Z</time>
      </trkpt>
      <trkpt lat="43.9404" lon="5.2759">
        <ele>283.6</ele>
        <time>2021-03-13T08:49:22Z</time>
      </trkpt>
      <trkpt lat="43.94036" lon="5.27561">
        <ele>283</ele>
        <time>2021-03-13T08:49:40Z</time>
      </trkpt>
      <trkpt lat="43.94032" lon="5.2753">
        <ele>282.2</ele>
        <time>2021-03-13T08:49:58Z</time>
      </trkpt>
      <trkpt lat="43.94028" lon="5.275">
        <ele>281.4</ele>
        <time>2021-03-13T08:50:16Z</time>
      </trkpt>
      <trkpt lat="43.94024" lon="5.27469">
        <ele>280.9</ele>
        <time>2021-03-13T08:50:33Z</time>
      </trkpt>
      <trkpt lat="43.94019" lon="5.2744">
        <ele>280.5</ele>
        <time>2021-03-13T08:50:49Z</time>
      </trkpt>
      <trkpt lat="43.94016" lon="5.2741">
        <ele>280.3</ele>
        <time>2021-03-13T08:51:06Z</time>
      </trkpt>
      <trkpt lat="43.94014" lon="5.27379">
        <ele>279.7</ele>
        <time>2021-03-13T08:51:23Z</time>
      </trkpt>
      <trkpt lat="43.94018" lon="5.27349">
        <ele>279.9</ele>
        <time>2021-03-13T08:51:39Z</time>
      </trkpt>
      <trkpt lat="43.94028" lon="5.27322">
        <ele>280.4</ele>
        <time>2021-03-13T08:51:55Z</time>
      </trkpt>
      <trkpt lat="43.9404" lon="5.27296">
        <ele>280.9</ele>
        <time>2021-03-13T08:52:12Z</time>
      </trkpt>
      <trkpt lat="43.94049" lon="5.27268">
        <ele>281.1</ele>
        <time>2021-03-13T08:52:29Z</time>
      </trkpt>
      <trkpt lat="43.94056" lon="5.27239">
        <ele>282.3</ele>
        <time>2021-03-13T08:52:47Z</time>
      </trkpt>
      <trkpt lat="43.94061" lon="5.2721">
        <ele>285.3</ele>
        <time>2021-03-13T08:53:09Z</time>
      </trkpt>
      <trkpt lat="43.94066" lon="5.27197">
        <ele>286.6</ele>
        <time>2021-03-13T08:58:54Z</time>
      </trkpt>
      <trkpt lat="43.94088" lon="5.27193">
        <ele>288.4</ele>
        <time>2021-03-13T08:59:21Z</time>
      </trkpt>
      <trkpt lat="43.94109" lon="5.27189">
        <ele>290.3</ele>
        <time>2021-03-13T08:59:42Z</time>
      </trkpt>
      <trkpt lat="43.9413" lon="5.27182">
        <ele>291.9</ele>
        <time>2021-03-13T09:00:08Z</time>
      </trkpt>
      <trkpt lat="43.94151" lon="5.2718">
        <ele>293.3</ele>
        <time>2021-03-13T09:00:47Z</time>
      </trkpt>
      <trkpt lat="43.94173" lon="5.27181">
        <ele>295.1</ele>
        <time>2021-03-13T09:01:13Z</time>
      </trkpt>
      <trkpt lat="43.94195" lon="5.27181">
        <ele>297.6</ele>
        <time>2021-03-13T09:01:39Z</time>
      </trkpt>
      <trkpt lat="43.94214" lon="5.2717">
        <ele>299.3</ele>
        <time>2021-03-13T09:02:13Z</time>
      </trkpt>
      <trkpt lat="43.94218" lon="5.27141">
        <ele>301.6</ele>
        <time>2021-03-13T09:02:42Z</time>
      </trkpt>
      <trkpt lat="43.94233" lon="5.27125">
        <ele>303.9</ele>
        <time>2021-03-13T09:04:47Z</time>
      </trkpt>
      <trkpt lat="43.9425" lon="5.2711">
        <ele>305.7</ele>
        <time>2021-03-13T09:07:20Z</time>
      </trkpt>
      <trkpt lat="43.94267" lon="5.27092">
        <ele>307.9</ele>
        <time>2021-03-13T09:07:50Z</time>
      </trkpt>
      <trkpt lat="43.94287" lon="5.27081">
        <ele>309.8</ele>
        <time>2021-03-13T09:08:25Z</time>
      </trkpt>
      <trkpt lat="43.94306" lon="5.27064">
        <ele>312</ele>
        <time>2021-03-13T09:08:50Z</time>
      </trkpt>
      <trkpt lat="43.94314" lon="5.27039">
        <ele>313.5</ele>
        <time>2021-03-13T09:09:23Z</time>
      </trkpt>
      <trkpt lat="43.94326" lon="5.2702">
        <ele>314.4</ele>
        <time>2021-03-13T09:12:18Z</time>
      </trkpt>
      <trkpt lat="43.94344" lon="5.27005">
        <ele>315.4</ele>
        <time>2021-03-13T09:12:53Z</time>
      </trkpt>
      <trkpt lat="43.94365" lon="5.27">
        <ele>316.5</ele>
        <time>2021-03-13T09:13:31Z</time>
      </trkpt>
      <trkpt lat="43.94387" lon="5.26994">
        <ele>318</ele>
        <time>2021-03-13T09:13:51Z</time>
      </trkpt>
      <trkpt lat="43.94404" lon="5.2698">
        <ele>319.8</ele>
        <time>2021-03-13T09:14:18Z</time>
      </trkpt>
      <trkpt lat="43.94415" lon="5.26958">
        <ele>321.5</ele>
        <time>2021-03-13T09:17:07Z</time>
      </trkpt>
      <trkpt lat="43.94433" lon="5.26963">
        <ele>322.4</ele>
        <time>2021-03-13T09:18:53Z</time>
      </trkpt>
      <trkpt lat="43.94455" lon="5.26961">
        <ele>324.1</ele>
        <time>2021-03-13T09:19:27Z</time>
      </trkpt>
      <trkpt lat="43.94476" lon="5.2696">
        <ele>325.7</ele>
        <time>2021-03-13T09:19:58Z</time>
      </trkpt>
      <trkpt lat="43.94498" lon="5.26959">
        <ele>327.3</ele>
        <time>2021-03-13T09:20:31Z</time>
      </trkpt>
      <trkpt lat="43.9452" lon="5.26959">
        <ele>328.6</ele>
        <time>2021-03-13T09:21:03Z</time>
      </trkpt>
      <trkpt lat="43.94541" lon="5.26955">
        <ele>329.9</ele>
        <time>2021-03-13T09:21:31Z</time>
      </trkpt>
      <trkpt lat="43.94562" lon="5.26953">
        <ele>331.2</ele>
        <time>2021-03-13T09:22:02Z</time>
      </trkpt>
      <trkpt lat="43.94579" lon="5.26972">
        <ele>330.8</ele>
        <time>2021-03-13T09:22:40Z</time>
      </trkpt>
      <trkpt lat="43.94595" lon="5.26993">
        <ele>330.5</ele>
        <time>2021-03-13T09:23:11Z</time>
      </trkpt>
      <trkpt lat="43.94611" lon="5.27012">
        <ele>331.9</ele>
        <time>2021-03-13T09:23:50Z</time>
      </trkpt>
      <trkpt lat="43.94631" lon="5.27003">
        <ele>333.2</ele>
        <time>2021-03-13T09:24:51Z</time>
      </trkpt>
      <trkpt lat="43.94642" lon="5.26978">
        <ele>335</ele>
        <time>2021-03-13T09:26:06Z</time>
      </trkpt>
      <trkpt lat="43.9465" lon="5.2695">
        <ele>336.8</ele>
        <time>2021-03-13T09:26:34Z</time>
      </trkpt>
      <trkpt lat="43.94665" lon="5.2693">
        <ele>338.5</ele>
        <time>2021-03-13T09:27:11Z</time>
      </trkpt>
      <trkpt lat="43.94682" lon="5.26913">
        <ele>341.4</ele>
        <time>2021-03-13T09:28:00Z</time>
      </trkpt>
      <trkpt lat="43.94703" lon="5.26904">
        <ele>344.5</ele>
        <time>2021-03-13T09:28:22Z</time>
      </trkpt>
      <trkpt lat="43.94714" lon="5.26878">
        <ele>346.5</ele>
        <time>2021-03-13T09:28:55Z</time>
      </trkpt>
      <trkpt lat="43.9473" lon="5.26858">
        <ele>346.9</ele>
        <time>2021-03-13T09:29:33Z</time>
      </trkpt>
      <trkpt lat="43.94742" lon="5.26834">
        <ele>345.7</ele>
        <time>2021-03-13T09:30:08Z</time>
      </trkpt>
      <trkpt lat="43.94747" lon="5.26805">
        <ele>347.4</ele>
        <time>2021-03-13T09:30:42Z</time>
      </trkpt>
      <trkpt lat="43.94758" lon="5.26779">
        <ele>350.4</ele>
        <time>2021-03-13T09:31:11Z</time>
      </trkpt>
      <trkpt lat="43.94767" lon="5.26753">
        <ele>353.5</ele>
        <time>2021-03-13T09:32:27Z</time>
      </trkpt>
      <trkpt lat="43.94779" lon="5.26728">
        <ele>356.6</ele>
        <time>2021-03-13T09:32:55Z</time>
      </trkpt>
      <trkpt lat="43.94789" lon="5.26702">
        <ele>358.5</ele>
        <time>2021-03-13T09:33:23Z</time>
      </trkpt>
      <trkpt lat="43.94793" lon="5.26673">
        <ele>359.4</ele>
        <time>2021-03-13T09:33:52Z</time>
      </trkpt>
      <trkpt lat="43.948" lon="5.26645">
        <ele>360</ele>
        <time>2021-03-13T09:34:35Z</time>
      </trkpt>
      <trkpt lat="43.94813" lon="5.26623">
        <ele>360</ele>
        <time>2021-03-13T09:35:06Z</time>
      </trkpt>
      <trkpt lat="43.94831" lon="5.26606">
        <ele>359.2</ele>
        <time>2021-03-13T09:35:32Z</time>
      </trkpt>
      <trkpt lat="43.94848" lon="5.26594">
        <ele>361</ele>
        <time>2021-03-13T09:36:26Z</time>
      </trkpt>
      <trkpt lat="43.94866" lon="5.26581">
        <ele>363.4</ele>
        <time>2021-03-13T09:37:32Z</time>
      </trkpt>
      <trkpt lat="43.94887" lon="5.26572">
        <ele>367.2</ele>
        <time>2021-03-13T09:37:59Z</time>
      </trkpt>
      <trkpt lat="43.94909" lon="5.26568">
        <ele>370.3</ele>
        <time>2021-03-13T09:38:26Z</time>
      </trkpt>
      <trkpt lat="43.9493" lon="5.2657">
        <ele>372.1</ele>
        <time>2021-03-13T09:39:42Z</time>
      </trkpt>
      <trkpt lat="43.94951" lon="5.26568">
        <ele>374.3</ele>
        <time>2021-03-13T09:40:08Z</time>
      </trkpt>
      <trkpt lat="43.94972" lon="5.26564">
        <ele>376.7</ele>
        <time>2021-03-13T09:40:37Z</time>
      </trkpt>
      <trkpt lat="43.94993" lon="5.26557">
        <ele>379.3</ele>
        <time>2021-03-13T09:41:27Z</time>
      </trkpt>
      <trkpt lat="43.95015" lon="5.26562">
        <ele>379.5</ele>
        <time>2021-03-13T09:42:08Z</time>
      </trkpt>
      <trkpt lat="43.9503" lon="5.26584">
        <ele>376.7</ele>
        <time>2021-03-13T09:42:51Z</time>
      </trkpt>
      <trkpt lat="43.9505" lon="5.26586">
        <ele>376.9</ele>
        <time>2021-03-13T09:43:23Z</time>
      </trkpt>
      <trkpt lat="43.95072" lon="5.26582">
        <ele>376.5</ele>
        <time>2021-03-13T09:43:46Z</time>
      </trkpt>
      <trkpt lat="43.95093" lon="5.26585">
        <ele>377.7</ele>
        <time>2021-03-13T09:44:13Z</time>
      </trkpt>
      <trkpt lat="43.95115" lon="5.26581">
        <ele>380.1</ele>
        <time>2021-03-13T09:44:40Z</time>
      </trkpt>
      <trkpt lat="43.95136" lon="5.26578">
        <ele>383.2</ele>
        <time>2021-03-13T09:45:05Z</time>
      </trkpt>
      <trkpt lat="43.95154" lon="5.26579">
        <ele>385.1</ele>
        <time>2021-03-13T09:45:27Z</time>
      </trkpt>
      <trkpt lat="43.95171" lon="5.26558">
        <ele>389.9</ele>
        <time>2021-03-13T09:46:00Z</time>
      </trkpt>
      <trkpt lat="43.9519" lon="5.26548">
        <ele>394</ele>
        <time>2021-03-13T09:46:28Z</time>
      </trkpt>
      <trkpt lat="43.95211" lon="5.2654">
        <ele>397.7</ele>
        <time>2021-03-13T09:47:08Z</time>
      </trkpt>
      <trkpt lat="43.95229" lon="5.26542">
        <ele>400.1</ele>
        <time>2021-03-13T09:48:05Z</time>
      </trkpt>
      <trkpt lat="43.95251" lon="5.2654">
        <ele>403.1</ele>
        <time>2021-03-13T09:48:50Z</time>
      </trkpt>
      <trkpt lat="43.9527" lon="5.26538">
        <ele>405.5</ele>
        <time>2021-03-13T09:50:16Z</time>
      </trkpt>
      <trkpt lat="43.95293" lon="5.26541">
        <ele>407.7</ele>
        <time>2021-03-13T09:50:48Z</time>
      </trkpt>
      <trkpt lat="43.95314" lon="5.26542">
        <ele>409.9</ele>
        <time>2021-03-13T09:51:15Z</time>
      </trkpt>
      <trkpt lat="43.95336" lon="5.26544">
        <ele>411.7</ele>
        <time>2021-03-13T09:51:42Z</time>
      </trkpt>
      <trkpt lat="43.95358" lon="5.26542">
        <ele>411.5</ele>
        <time>2021-03-13T09:52:05Z</time>
      </trkpt>
      <trkpt lat="43.95378" lon="5.26551">
        <ele>409.4</ele>
        <time>2021-03-13T09:52:39Z</time>
      </trkpt>
      <trkpt lat="43.95389" lon="5.26559">
        <ele>407.3</ele>
        <time>2021-03-13T09:53:40Z</time>
      </trkpt>
      <trkpt lat="43.95408" lon="5.26567">
        <ele>404.5</ele>
        <time>2021-03-13T09:54:04Z</time>
      </trkpt>
      <trkpt lat="43.95425" lon="5.26587">
        <ele>402.2</ele>
        <time>2021-03-13T09:54:22Z</time>
      </trkpt>
      <trkpt lat="43.9544" lon="5.2661">
        <ele>408.1</ele>
        <time>2021-03-13T09:54:44Z</time>
      </trkpt>
      <trkpt lat="43.95461" lon="5.26612">
        <ele>408.6</ele>
        <time>2021-03-13T09:55:12Z</time>
      </trkpt>
      <trkpt lat="43.95482" lon="5.26619">
        <ele>408.4</ele>
        <time>2021-03-13T09:55:35Z</time>
      </trkpt>
      <trkpt lat="43.95503" lon="5.26627">
        <ele>407.2</ele>
        <time>2021-03-13T09:56:00Z</time>
      </trkpt>
      <trkpt lat="43.95522" lon="5.26643">
        <ele>408</ele>
        <time>2021-03-13T09:56:25Z</time>
      </trkpt>
      <trkpt lat="43.95542" lon="5.2665">
        <ele>409.5</ele>
        <time>2021-03-13T09:57:09Z</time>
      </trkpt>
      <trkpt lat="43.9556" lon="5.26658">
        <ele>409.9</ele>
        <time>2021-03-13T09:58:11Z</time>
      </trkpt>
      <trkpt lat="43.9558" lon="5.26665">
        <ele>410.1</ele>
        <time>2021-03-13T09:58:54Z</time>
      </trkpt>
      <trkpt lat="43.95598" lon="5.2667">
        <ele>412.2</ele>
        <time>2021-03-13T10:00:29Z</time>
      </trkpt>
      <trkpt lat="43.9562" lon="5.26668">
        <ele>412.5</ele>
        <time>2021-03-13T10:00:55Z</time>
      </trkpt>
      <trkpt lat="43.95643" lon="5.26662">
        <ele>414.5</ele>
        <time>2021-03-13T10:01:19Z</time>
      </trkpt>
      <trkpt lat="43.95661" lon="5.26649">
        <ele>419.3</ele>
        <time>2021-03-13T10:01:48Z</time>
      </trkpt>
      <trkpt lat="43.95683" lon="5.26651">
        <ele>421.2</ele>
        <time>2021-03-13T10:02:11Z</time>
      </trkpt>
      <trkpt lat="43.95701" lon="5.26665">
        <ele>418.2</ele>
        <time>2021-03-13T10:02:53Z</time>
      </trkpt>
      <trkpt lat="43.95714" lon="5.26648">
        <ele>426.5</ele>
        <time>2021-03-13T10:04:37Z</time>
      </trkpt>
      <trkpt lat="43.95717" lon="5.26631">
        <ele>433.4</ele>
        <time>2021-03-13T10:07:33Z</time>
      </trkpt>
      <trkpt lat="43.95717" lon="5.26648">
        <ele>426.8</ele>
        <time>2021-03-13T10:12:20Z</time>
      </trkpt>
      <trkpt lat="43.95723" lon="5.26653">
        <ele>425.6</ele>
        <time>2021-03-13T10:17:21Z</time>
      </trkpt>
      <trkpt lat="43.95728" lon="5.2666">
        <ele>423.4</ele>
        <time>2021-03-13T10:18:54Z</time>
      </trkpt>
      <trkpt lat="43.9574" lon="5.26685">
        <ele>430.3</ele>
        <time>2021-03-13T10:19:32Z</time>
      </trkpt>
      <trkpt lat="43.9576" lon="5.26696">
        <ele>437.3</ele>
        <time>2021-03-13T10:21:47Z</time>
      </trkpt>
      <trkpt lat="43.95776" lon="5.26697">
        <ele>439.5</ele>
        <time>2021-03-13T10:23:13Z</time>
      </trkpt>
      <trkpt lat="43.95792" lon="5.26686">
        <ele>436.4</ele>
        <time>2021-03-13T10:24:55Z</time>
      </trkpt>
      <trkpt lat="43.95811" lon="5.26694">
        <ele>442.2</ele>
        <time>2021-03-13T10:25:30Z</time>
      </trkpt>
      <trkpt lat="43.95832" lon="5.26686">
        <ele>441.1</ele>
        <time>2021-03-13T10:25:51Z</time>
      </trkpt>
      <trkpt lat="43.95852" lon="5.26678">
        <ele>439.1</ele>
        <time>2021-03-13T10:26:42Z</time>
      </trkpt>
      <trkpt lat="43.95874" lon="5.26679">
        <ele>440.6</ele>
        <time>2021-03-13T10:27:37Z</time>
      </trkpt>
      <trkpt lat="43.95887" lon="5.26668">
        <ele>436.4</ele>
        <time>2021-03-13T10:30:00Z</time>
      </trkpt>
      <trkpt lat="43.95906" lon="5.26654">
        <ele>440.1</ele>
        <time>2021-03-13T10:30:18Z</time>
      </trkpt>
      <trkpt lat="43.95923" lon="5.26648">
        <ele>441.7</ele>
        <time>2021-03-13T10:30:55Z</time>
      </trkpt>
      <trkpt lat="43.95944" lon="5.26649">
        <ele>442.6</ele>
        <time>2021-03-13T10:31:20Z</time>
      </trkpt>
      <trkpt lat="43.95964" lon="5.26655">
        <ele>442.8</ele>
        <time>2021-03-13T10:32:05Z</time>
      </trkpt>
      <trkpt lat="43.95982" lon="5.26647">
        <ele>444.8</ele>
        <time>2021-03-13T10:33:09Z</time>
      </trkpt>
      <trkpt lat="43.96002" lon="5.26634">
        <ele>447</ele>
        <time>2021-03-13T10:33:30Z</time>
      </trkpt>
      <trkpt lat="43.9602" lon="5.26618">
        <ele>449.1</ele>
        <time>2021-03-13T10:33:46Z</time>
      </trkpt>
      <trkpt lat="43.96042" lon="5.26608">
        <ele>449.9</ele>
        <time>2021-03-13T10:34:03Z</time>
      </trkpt>
      <trkpt lat="43.96062" lon="5.26601">
        <ele>449.9</ele>
        <time>2021-03-13T10:35:04Z</time>
      </trkpt>
      <trkpt lat="43.96078" lon="5.26585">
        <ele>448.4</ele>
        <time>2021-03-13T10:35:41Z</time>
      </trkpt>
      <trkpt lat="43.96091" lon="5.26562">
        <ele>451</ele>
        <time>2021-03-13T10:36:08Z</time>
      </trkpt>
      <trkpt lat="43.96101" lon="5.26535">
        <ele>453.4</ele>
        <time>2021-03-13T10:36:27Z</time>
      </trkpt>
      <trkpt lat="43.96118" lon="5.26519">
        <ele>453.6</ele>
        <time>2021-03-13T10:37:15Z</time>
      </trkpt>
      <trkpt lat="43.96129" lon="5.26517">
        <ele>453.1</ele>
        <time>2021-03-13T10:38:32Z</time>
      </trkpt>
      <trkpt lat="43.96139" lon="5.2652">
        <ele>452.9</ele>
        <time>2021-03-13T10:39:34Z</time>
      </trkpt>
      <trkpt lat="43.96149" lon="5.26506">
        <ele>451.2</ele>
        <time>2021-03-13T10:40:34Z</time>
      </trkpt>
      <trkpt lat="43.9615" lon="5.26498">
        <ele>451</ele>
        <time>2021-03-13T10:41:45Z</time>
      </trkpt>
      <trkpt lat="43.9617" lon="5.26489">
        <ele>451</ele>
        <time>2021-03-13T10:46:53Z</time>
      </trkpt>
      <trkpt lat="43.96178" lon="5.26518">
        <ele>452.7</ele>
        <time>2021-03-13T10:47:28Z</time>
      </trkpt>
      <trkpt lat="43.96192" lon="5.26539">
        <ele>456.5</ele>
        <time>2021-03-13T10:48:40Z</time>
      </trkpt>
      <trkpt lat="43.96196" lon="5.26564">
        <ele>459.4</ele>
        <time>2021-03-13T10:49:45Z</time>
      </trkpt>
      <trkpt lat="43.9618" lon="5.26576">
        <ele>460.2</ele>
        <time>2021-03-13T10:50:43Z</time>
      </trkpt>
      <trkpt lat="43.96174" lon="5.26598">
        <ele>465.1</ele>
        <time>2021-03-13T10:51:42Z</time>
      </trkpt>
      <trkpt lat="43.96166" lon="5.26626">
        <ele>472</ele>
        <time>2021-03-13T10:52:24Z</time>
      </trkpt>
      <trkpt lat="43.96161" lon="5.26655">
        <ele>478.5</ele>
        <time>2021-03-13T10:53:19Z</time>
      </trkpt>
      <trkpt lat="43.96165" lon="5.26685">
        <ele>483.5</ele>
        <time>2021-03-13T10:53:44Z</time>
      </trkpt>
      <trkpt lat="43.9618" lon="5.26705">
        <ele>485.8</ele>
        <time>2021-03-13T10:54:11Z</time>
      </trkpt>
      <trkpt lat="43.96192" lon="5.26731">
        <ele>488.3</ele>
        <time>2021-03-13T10:54:35Z</time>
      </trkpt>
      <trkpt lat="43.96206" lon="5.26753">
        <ele>491.1</ele>
        <time>2021-03-13T10:54:59Z</time>
      </trkpt>
      <trkpt lat="43.9622" lon="5.26776">
        <ele>493.6</ele>
        <time>2021-03-13T10:55:24Z</time>
      </trkpt>
      <trkpt lat="43.96223" lon="5.26792">
        <ele>494.7</ele>
        <time>2021-03-13T11:42:48Z</time>
      </trkpt>
      <trkpt lat="43.96234" lon="5.26804">
        <ele>496.2</ele>
        <time>2021-03-13T11:44:41Z</time>
      </trkpt>
      <trkpt lat="43.96226" lon="5.26803">
        <ele>495.7</ele>
        <time>2021-03-13T11:50:23Z</time>
      </trkpt>
      <trkpt lat="43.96241" lon="5.26826">
        <ele>498</ele>
        <time>2021-03-13T11:50:58Z</time>
      </trkpt>
      <trkpt lat="43.96255" lon="5.2685">
        <ele>499.9</ele>
        <time>2021-03-13T11:51:31Z</time>
      </trkpt>
      <trkpt lat="43.96268" lon="5.26875">
        <ele>501.1</ele>
        <time>2021-03-13T11:52:00Z</time>
      </trkpt>
      <trkpt lat="43.9628" lon="5.26899">
        <ele>502.2</ele>
        <time>2021-03-13T11:52:21Z</time>
      </trkpt>
      <trkpt lat="43.96288" lon="5.26928">
        <ele>504</ele>
        <time>2021-03-13T11:52:42Z</time>
      </trkpt>
      <trkpt lat="43.96298" lon="5.26956">
        <ele>506</ele>
        <time>2021-03-13T11:53:07Z</time>
      </trkpt>
      <trkpt lat="43.96305" lon="5.26973">
        <ele>507.2</ele>
        <time>2021-03-13T11:53:37Z</time>
      </trkpt>
      <trkpt lat="43.96305" lon="5.26995">
        <ele>509</ele>
        <time>2021-03-13T11:54:49Z</time>
      </trkpt>
      <trkpt lat="43.96309" lon="5.27025">
        <ele>510</ele>
        <time>2021-03-13T11:55:14Z</time>
      </trkpt>
      <trkpt lat="43.9631" lon="5.27055">
        <ele>510.8</ele>
        <time>2021-03-13T11:55:32Z</time>
      </trkpt>
      <trkpt lat="43.96317" lon="5.27084">
        <ele>511.4</ele>
        <time>2021-03-13T11:55:50Z</time>
      </trkpt>
      <trkpt lat="43.96324" lon="5.27113">
        <ele>512.1</ele>
        <time>2021-03-13T11:56:09Z</time>
      </trkpt>
      <trkpt lat="43.96332" lon="5.27141">
        <ele>513.1</ele>
        <time>2021-03-13T11:56:28Z</time>
      </trkpt>
      <trkpt lat="43.96345" lon="5.27167">
        <ele>514.5</ele>
        <time>2021-03-13T11:56:51Z</time>
      </trkpt>
      <trkpt lat="43.96357" lon="5.27192">
        <ele>515.6</ele>
        <time>2021-03-13T11:57:14Z</time>
      </trkpt>
      <trkpt lat="43.96367" lon="5.27219">
        <ele>517.1</ele>
        <time>2021-03-13T11:57:42Z</time>
      </trkpt>
      <trkpt lat="43.96375" lon="5.27247">
        <ele>518.9</ele>
        <time>2021-03-13T11:58:09Z</time>
      </trkpt>
      <trkpt lat="43.96382" lon="5.27276">
        <ele>519.2</ele>
        <time>2021-03-13T11:58:33Z</time>
      </trkpt>
      <trkpt lat="43.96388" lon="5.27272">
        <ele>520</ele>
        <time>2021-03-13T11:59:34Z</time>
      </trkpt>
      <trkpt lat="43.96387" lon="5.27285">
        <ele>519.5</ele>
        <time>2021-03-13T12:00:24Z</time>
      </trkpt>
      <trkpt lat="43.96392" lon="5.27313">
        <ele>519.2</ele>
        <time>2021-03-13T12:00:54Z</time>
      </trkpt>
      <trkpt lat="43.96388" lon="5.27313">
        <ele>518.8</ele>
        <time>2021-03-13T12:01:47Z</time>
      </trkpt>
      <trkpt lat="43.96379" lon="5.27286">
        <ele>518.5</ele>
        <time>2021-03-13T12:02:13Z</time>
      </trkpt>
      <trkpt lat="43.9637" lon="5.27257">
        <ele>518.3</ele>
        <time>2021-03-13T12:02:35Z</time>
      </trkpt>
      <trkpt lat="43.96356" lon="5.27238">
        <ele>516.5</ele>
        <time>2021-03-13T12:02:55Z</time>
      </trkpt>
      <trkpt lat="43.96337" lon="5.27251">
        <ele>514.4</ele>
        <time>2021-03-13T12:03:14Z</time>
      </trkpt>
      <trkpt lat="43.96315" lon="5.27262">
        <ele>513.1</ele>
        <time>2021-03-13T12:03:35Z</time>
      </trkpt>
      <trkpt lat="43.963" lon="5.27268">
        <ele>512.4</ele>
        <time>2021-03-13T12:04:28Z</time>
      </trkpt>
      <trkpt lat="43.96281" lon="5.27279">
        <ele>511.6</ele>
        <time>2021-03-13T12:05:16Z</time>
      </trkpt>
      <trkpt lat="43.96273" lon="5.27286">
        <ele>511.3</ele>
        <time>2021-03-13T12:05:57Z</time>
      </trkpt>
      <trkpt lat="43.96252" lon="5.27297">
        <ele>510.6</ele>
        <time>2021-03-13T12:06:21Z</time>
      </trkpt>
      <trkpt lat="43.96231" lon="5.27308">
        <ele>511.2</ele>
        <time>2021-03-13T12:06:45Z</time>
      </trkpt>
      <trkpt lat="43.96211" lon="5.2732">
        <ele>512</ele>
        <time>2021-03-13T12:07:08Z</time>
      </trkpt>
      <trkpt lat="43.9619" lon="5.27333">
        <ele>513.1</ele>
        <time>2021-03-13T12:07:33Z</time>
      </trkpt>
      <trkpt lat="43.96174" lon="5.27347">
        <ele>514.1</ele>
        <time>2021-03-13T12:07:57Z</time>
      </trkpt>
      <trkpt lat="43.96171" lon="5.27355">
        <ele>514.4</ele>
        <time>2021-03-13T12:08:34Z</time>
      </trkpt>
      <trkpt lat="43.96163" lon="5.27383">
        <ele>515.5</ele>
        <time>2021-03-13T12:08:53Z</time>
      </trkpt>
      <trkpt lat="43.9615" lon="5.27408">
        <ele>517</ele>
        <time>2021-03-13T12:09:15Z</time>
      </trkpt>
      <trkpt lat="43.96139" lon="5.27432">
        <ele>518.5</ele>
        <time>2021-03-13T12:10:11Z</time>
      </trkpt>
      <trkpt lat="43.96125" lon="5.27456">
        <ele>520.2</ele>
        <time>2021-03-13T12:10:29Z</time>
      </trkpt>
      <trkpt lat="43.96112" lon="5.27481">
        <ele>521.5</ele>
        <time>2021-03-13T12:10:47Z</time>
      </trkpt>
      <trkpt lat="43.961" lon="5.27507">
        <ele>522.4</ele>
        <time>2021-03-13T12:11:06Z</time>
      </trkpt>
      <trkpt lat="43.96088" lon="5.27534">
        <ele>522.2</ele>
        <time>2021-03-13T12:11:25Z</time>
      </trkpt>
      <trkpt lat="43.96075" lon="5.2756">
        <ele>521.2</ele>
        <time>2021-03-13T12:11:43Z</time>
      </trkpt>
      <trkpt lat="43.96065" lon="5.27587">
        <ele>520.1</ele>
        <time>2021-03-13T12:12:15Z</time>
      </trkpt>
      <trkpt lat="43.96052" lon="5.2761">
        <ele>519.1</ele>
        <time>2021-03-13T12:12:56Z</time>
      </trkpt>
      <trkpt lat="43.96037" lon="5.27626">
        <ele>518</ele>
        <time>2021-03-13T12:14:13Z</time>
      </trkpt>
      <trkpt lat="43.96018" lon="5.27637">
        <ele>516.7</ele>
        <time>2021-03-13T12:15:39Z</time>
      </trkpt>
      <trkpt lat="43.95998" lon="5.2765">
        <ele>515.3</ele>
        <time>2021-03-13T12:16:07Z</time>
      </trkpt>
      <trkpt lat="43.9598" lon="5.27667">
        <ele>513.3</ele>
        <time>2021-03-13T12:16:31Z</time>
      </trkpt>
      <trkpt lat="43.95964" lon="5.27688">
        <ele>511.5</ele>
        <time>2021-03-13T12:16:53Z</time>
      </trkpt>
      <trkpt lat="43.9595" lon="5.27711">
        <ele>509.8</ele>
        <time>2021-03-13T12:17:12Z</time>
      </trkpt>
      <trkpt lat="43.95937" lon="5.27736">
        <ele>508</ele>
        <time>2021-03-13T12:17:32Z</time>
      </trkpt>
      <trkpt lat="43.95922" lon="5.2776">
        <ele>506.3</ele>
        <time>2021-03-13T12:17:52Z</time>
      </trkpt>
      <trkpt lat="43.95907" lon="5.27783">
        <ele>504.8</ele>
        <time>2021-03-13T12:18:11Z</time>
      </trkpt>
      <trkpt lat="43.95894" lon="5.27809">
        <ele>503.7</ele>
        <time>2021-03-13T12:18:30Z</time>
      </trkpt>
      <trkpt lat="43.95884" lon="5.27836">
        <ele>503</ele>
        <time>2021-03-13T12:18:48Z</time>
      </trkpt>
      <trkpt lat="43.95877" lon="5.27865">
        <ele>502.3</ele>
        <time>2021-03-13T12:19:06Z</time>
      </trkpt>
      <trkpt lat="43.95872" lon="5.27895">
        <ele>501.6</ele>
        <time>2021-03-13T12:19:25Z</time>
      </trkpt>
      <trkpt lat="43.95872" lon="5.27925">
        <ele>501.4</ele>
        <time>2021-03-13T12:19:44Z</time>
      </trkpt>
      <trkpt lat="43.9587" lon="5.27955">
        <ele>501.4</ele>
        <time>2021-03-13T12:20:03Z</time>
      </trkpt>
      <trkpt lat="43.9587" lon="5.27985">
        <ele>501.5</ele>
        <time>2021-03-13T12:20:30Z</time>
      </trkpt>
      <trkpt lat="43.95866" lon="5.28014">
        <ele>501.2</ele>
        <time>2021-03-13T12:20:54Z</time>
      </trkpt>
      <trkpt lat="43.95863" lon="5.28044">
        <ele>500.6</ele>
        <time>2021-03-13T12:21:29Z</time>
      </trkpt>
      <trkpt lat="43.95869" lon="5.28072">
        <ele>500.7</ele>
        <time>2021-03-13T12:21:55Z</time>
      </trkpt>
      <trkpt lat="43.95879" lon="5.281">
        <ele>501</ele>
        <time>2021-03-13T12:22:15Z</time>
      </trkpt>
      <trkpt lat="43.95885" lon="5.28129">
        <ele>501.1</ele>
        <time>2021-03-13T12:22:34Z</time>
      </trkpt>
      <trkpt lat="43.95897" lon="5.28155">
        <ele>502</ele>
        <time>2021-03-13T12:23:06Z</time>
      </trkpt>
      <trkpt lat="43.95911" lon="5.28177">
        <ele>503.3</ele>
        <time>2021-03-13T12:23:24Z</time>
      </trkpt>
      <trkpt lat="43.95926" lon="5.282">
        <ele>504.5</ele>
        <time>2021-03-13T12:23:42Z</time>
      </trkpt>
      <trkpt lat="43.95941" lon="5.28222">
        <ele>505.8</ele>
        <time>2021-03-13T12:23:59Z</time>
      </trkpt>
      <trkpt lat="43.95954" lon="5.28247">
        <ele>506.6</ele>
        <time>2021-03-13T12:24:21Z</time>
      </trkpt>
      <trkpt lat="43.95967" lon="5.28272">
        <ele>507.7</ele>
        <time>2021-03-13T12:24:45Z</time>
      </trkpt>
      <trkpt lat="43.95985" lon="5.28288">
        <ele>509.5</ele>
        <time>2021-03-13T12:25:05Z</time>
      </trkpt>
      <trkpt lat="43.96007" lon="5.28292">
        <ele>511.5</ele>
        <time>2021-03-13T12:25:25Z</time>
      </trkpt>
      <trkpt lat="43.96029" lon="5.28299">
        <ele>513.1</ele>
        <time>2021-03-13T12:25:45Z</time>
      </trkpt>
      <trkpt lat="43.96051" lon="5.28309">
        <ele>514.4</ele>
        <time>2021-03-13T12:26:05Z</time>
      </trkpt>
      <trkpt lat="43.96072" lon="5.28319">
        <ele>515.6</ele>
        <time>2021-03-13T12:26:25Z</time>
      </trkpt>
      <trkpt lat="43.96094" lon="5.28318">
        <ele>517.6</ele>
        <time>2021-03-13T12:26:45Z</time>
      </trkpt>
      <trkpt lat="43.96116" lon="5.28319">
        <ele>520.1</ele>
        <time>2021-03-13T12:27:03Z</time>
      </trkpt>
      <trkpt lat="43.96138" lon="5.28323">
        <ele>522.4</ele>
        <time>2021-03-13T12:27:21Z</time>
      </trkpt>
      <trkpt lat="43.96158" lon="5.28326">
        <ele>524.6</ele>
        <time>2021-03-13T12:28:55Z</time>
      </trkpt>
      <trkpt lat="43.96177" lon="5.28341">
        <ele>526.2</ele>
        <time>2021-03-13T12:29:18Z</time>
      </trkpt>
      <trkpt lat="43.96185" lon="5.2837">
        <ele>526.6</ele>
        <time>2021-03-13T12:29:37Z</time>
      </trkpt>
      <trkpt lat="43.96191" lon="5.28399">
        <ele>526.9</ele>
        <time>2021-03-13T12:29:55Z</time>
      </trkpt>
      <trkpt lat="43.96197" lon="5.28429">
        <ele>527.6</ele>
        <time>2021-03-13T12:30:13Z</time>
      </trkpt>
      <trkpt lat="43.962" lon="5.28448">
        <ele>528.6</ele>
        <time>2021-03-13T12:30:59Z</time>
      </trkpt>
      <trkpt lat="43.96215" lon="5.28455">
        <ele>530.9</ele>
        <time>2021-03-13T12:31:26Z</time>
      </trkpt>
      <trkpt lat="43.96231" lon="5.28474">
        <ele>533.7</ele>
        <time>2021-03-13T12:31:47Z</time>
      </trkpt>
      <trkpt lat="43.96236" lon="5.28503">
        <ele>534.9</ele>
        <time>2021-03-13T12:32:06Z</time>
      </trkpt>
      <trkpt lat="43.96235" lon="5.28534">
        <ele>534.8</ele>
        <time>2021-03-13T12:32:25Z</time>
      </trkpt>
      <trkpt lat="43.96247" lon="5.28557">
        <ele>536.5</ele>
        <time>2021-03-13T12:32:46Z</time>
      </trkpt>
      <trkpt lat="43.96268" lon="5.28566">
        <ele>539.2</ele>
        <time>2021-03-13T12:33:09Z</time>
      </trkpt>
      <trkpt lat="43.9629" lon="5.2856">
        <ele>542</ele>
        <time>2021-03-13T12:33:30Z</time>
      </trkpt>
      <trkpt lat="43.96311" lon="5.28553">
        <ele>545.3</ele>
        <time>2021-03-13T12:33:53Z</time>
      </trkpt>
      <trkpt lat="43.96333" lon="5.28546">
        <ele>548.9</ele>
        <time>2021-03-13T12:34:15Z</time>
      </trkpt>
      <trkpt lat="43.96353" lon="5.28533">
        <ele>551.5</ele>
        <time>2021-03-13T12:34:40Z</time>
      </trkpt>
      <trkpt lat="43.96363" lon="5.28507">
        <ele>555.3</ele>
        <time>2021-03-13T12:34:59Z</time>
      </trkpt>
      <trkpt lat="43.96365" lon="5.28475">
        <ele>556.6</ele>
        <time>2021-03-13T12:35:18Z</time>
      </trkpt>
      <trkpt lat="43.96379" lon="5.28451">
        <ele>558.6</ele>
        <time>2021-03-13T12:35:37Z</time>
      </trkpt>
      <trkpt lat="43.96399" lon="5.28443">
        <ele>561.7</ele>
        <time>2021-03-13T12:35:55Z</time>
      </trkpt>
      <trkpt lat="43.9642" lon="5.28432">
        <ele>565</ele>
        <time>2021-03-13T12:36:13Z</time>
      </trkpt>
      <trkpt lat="43.96436" lon="5.28411">
        <ele>566.7</ele>
        <time>2021-03-13T12:36:32Z</time>
      </trkpt>
      <trkpt lat="43.96456" lon="5.28399">
        <ele>567.7</ele>
        <time>2021-03-13T12:36:50Z</time>
      </trkpt>
      <trkpt lat="43.96478" lon="5.28399">
        <ele>568.8</ele>
        <time>2021-03-13T12:37:09Z</time>
      </trkpt>
      <trkpt lat="43.96501" lon="5.28397">
        <ele>570</ele>
        <time>2021-03-13T12:37:29Z</time>
      </trkpt>
      <trkpt lat="43.96523" lon="5.28396">
        <ele>570.5</ele>
        <time>2021-03-13T12:37:49Z</time>
      </trkpt>
      <trkpt lat="43.96545" lon="5.28394">
        <ele>571</ele>
        <time>2021-03-13T12:38:38Z</time>
      </trkpt>
      <trkpt lat="43.96562" lon="5.28392">
        <ele>571.4</ele>
        <time>2021-03-13T12:39:27Z</time>
      </trkpt>
      <trkpt lat="43.96577" lon="5.28396">
        <ele>571.6</ele>
        <time>2021-03-13T12:39:53Z</time>
      </trkpt>
      <trkpt lat="43.96599" lon="5.28398">
        <ele>570.6</ele>
        <time>2021-03-13T12:40:12Z</time>
      </trkpt>
      <trkpt lat="43.96621" lon="5.28398">
        <ele>569</ele>
        <time>2021-03-13T12:40:32Z</time>
      </trkpt>
      <trkpt lat="43.96642" lon="5.28386">
        <ele>567.9</ele>
        <time>2021-03-13T12:40:51Z</time>
      </trkpt>
      <trkpt lat="43.96662" lon="5.28373">
        <ele>566.9</ele>
        <time>2021-03-13T12:41:10Z</time>
      </trkpt>
      <trkpt lat="43.96684" lon="5.28368">
        <ele>567.2</ele>
        <time>2021-03-13T12:41:30Z</time>
      </trkpt>
      <trkpt lat="43.96705" lon="5.28356">
        <ele>568.1</ele>
        <time>2021-03-13T12:41:48Z</time>
      </trkpt>
      <trkpt lat="43.96724" lon="5.28343">
        <ele>569</ele>
        <time>2021-03-13T12:42:05Z</time>
      </trkpt>
      <trkpt lat="43.96745" lon="5.28333">
        <ele>569.9</ele>
        <time>2021-03-13T12:42:23Z</time>
      </trkpt>
      <trkpt lat="43.96766" lon="5.28326">
        <ele>570.6</ele>
        <time>2021-03-13T12:42:40Z</time>
      </trkpt>
      <trkpt lat="43.96788" lon="5.28324">
        <ele>571.1</ele>
        <time>2021-03-13T12:42:57Z</time>
      </trkpt>
      <trkpt lat="43.9681" lon="5.28326">
        <ele>571.3</ele>
        <time>2021-03-13T12:43:14Z</time>
      </trkpt>
      <trkpt lat="43.96829" lon="5.28339">
        <ele>570.9</ele>
        <time>2021-03-13T12:43:30Z</time>
      </trkpt>
      <trkpt lat="43.96846" lon="5.2836">
        <ele>571.9</ele>
        <time>2021-03-13T12:43:47Z</time>
      </trkpt>
      <trkpt lat="43.96861" lon="5.28381">
        <ele>572.9</ele>
        <time>2021-03-13T12:44:04Z</time>
      </trkpt>
      <trkpt lat="43.96872" lon="5.28407">
        <ele>573.5</ele>
        <time>2021-03-13T12:44:21Z</time>
      </trkpt>
      <trkpt lat="43.96883" lon="5.28434">
        <ele>574.4</ele>
        <time>2021-03-13T12:44:39Z</time>
      </trkpt>
      <trkpt lat="43.96896" lon="5.28459">
        <ele>575.5</ele>
        <time>2021-03-13T12:44:56Z</time>
      </trkpt>
      <trkpt lat="43.96907" lon="5.28484">
        <ele>576.4</ele>
        <time>2021-03-13T12:45:13Z</time>
      </trkpt>
      <trkpt lat="43.96918" lon="5.28512">
        <ele>577</ele>
        <time>2021-03-13T12:45:30Z</time>
      </trkpt>
      <trkpt lat="43.96924" lon="5.28541">
        <ele>577.3</ele>
        <time>2021-03-13T12:45:47Z</time>
      </trkpt>
      <trkpt lat="43.96927" lon="5.28571">
        <ele>577.4</ele>
        <time>2021-03-13T12:46:16Z</time>
      </trkpt>
      <trkpt lat="43.96931" lon="5.28602">
        <ele>577.6</ele>
        <time>2021-03-13T12:46:34Z</time>
      </trkpt>
      <trkpt lat="43.96939" lon="5.28631">
        <ele>578.1</ele>
        <time>2021-03-13T12:46:52Z</time>
      </trkpt>
      <trkpt lat="43.96952" lon="5.28657">
        <ele>578.4</ele>
        <time>2021-03-13T12:47:09Z</time>
      </trkpt>
      <trkpt lat="43.96962" lon="5.28684">
        <ele>578.3</ele>
        <time>2021-03-13T12:47:27Z</time>
      </trkpt>
      <trkpt lat="43.96974" lon="5.28711">
        <ele>578.2</ele>
        <time>2021-03-13T12:47:44Z</time>
      </trkpt>
      <trkpt lat="43.96985" lon="5.28738">
        <ele>578</ele>
        <time>2021-03-13T12:48:01Z</time>
      </trkpt>
      <trkpt lat="43.96991" lon="5.28764">
        <ele>578.1</ele>
        <time>2021-03-13T12:48:24Z</time>
      </trkpt>
      <trkpt lat="43.96999" lon="5.28791">
        <ele>578.5</ele>
        <time>2021-03-13T12:48:45Z</time>
      </trkpt>
      <trkpt lat="43.97011" lon="5.28816">
        <ele>579</ele>
        <time>2021-03-13T12:49:03Z</time>
      </trkpt>
      <trkpt lat="43.97025" lon="5.28839">
        <ele>579.2</ele>
        <time>2021-03-13T12:49:29Z</time>
      </trkpt>
      <trkpt lat="43.97017" lon="5.2886">
        <ele>578.8</ele>
        <time>2021-03-13T12:49:49Z</time>
      </trkpt>
      <trkpt lat="43.97001" lon="5.28881">
        <ele>578.4</ele>
        <time>2021-03-13T12:50:11Z</time>
      </trkpt>
      <trkpt lat="43.97015" lon="5.28871">
        <ele>578.6</ele>
        <time>2021-03-13T12:50:46Z</time>
      </trkpt>
      <trkpt lat="43.97033" lon="5.28855">
        <ele>578.9</ele>
        <time>2021-03-13T12:51:11Z</time>
      </trkpt>
      <trkpt lat="43.97045" lon="5.28877">
        <ele>578.4</ele>
        <time>2021-03-13T12:51:58Z</time>
      </trkpt>
      <trkpt lat="43.97059" lon="5.28902">
        <ele>577.7</ele>
        <time>2021-03-13T12:52:16Z</time>
      </trkpt>
      <trkpt lat="43.97072" lon="5.28927">
        <ele>577.2</ele>
        <time>2021-03-13T12:52:34Z</time>
      </trkpt>
      <trkpt lat="43.97086" lon="5.28951">
        <ele>577.5</ele>
        <time>2021-03-13T12:52:52Z</time>
      </trkpt>
      <trkpt lat="43.97099" lon="5.28976">
        <ele>577.9</ele>
        <time>2021-03-13T12:53:10Z</time>
      </trkpt>
      <trkpt lat="43.97107" lon="5.29004">
        <ele>578.1</ele>
        <time>2021-03-13T12:53:30Z</time>
      </trkpt>
      <trkpt lat="43.97118" lon="5.29032">
        <ele>578.3</ele>
        <time>2021-03-13T12:53:48Z</time>
      </trkpt>
      <trkpt lat="43.97134" lon="5.29053">
        <ele>577.5</ele>
        <time>2021-03-13T12:54:05Z</time>
      </trkpt>
      <trkpt lat="43.97154" lon="5.29067">
        <ele>575.8</ele>
        <time>2021-03-13T12:54:24Z</time>
      </trkpt>
      <trkpt lat="43.97174" lon="5.2908">
        <ele>574.1</ele>
        <time>2021-03-13T12:54:43Z</time>
      </trkpt>
      <trkpt lat="43.9719" lon="5.29102">
        <ele>572.7</ele>
        <time>2021-03-13T12:55:02Z</time>
      </trkpt>
      <trkpt lat="43.97199" lon="5.29129">
        <ele>570.9</ele>
        <time>2021-03-13T12:55:20Z</time>
      </trkpt>
      <trkpt lat="43.97205" lon="5.29158">
        <ele>568.7</ele>
        <time>2021-03-13T12:55:39Z</time>
      </trkpt>
      <trkpt lat="43.97198" lon="5.29187">
        <ele>567</ele>
        <time>2021-03-13T12:55:56Z</time>
      </trkpt>
      <trkpt lat="43.97195" lon="5.29217">
        <ele>564.7</ele>
        <time>2021-03-13T12:56:14Z</time>
      </trkpt>
      <trkpt lat="43.97195" lon="5.29248">
        <ele>562.1</ele>
        <time>2021-03-13T12:56:33Z</time>
      </trkpt>
      <trkpt lat="43.97198" lon="5.29278">
        <ele>558.3</ele>
        <time>2021-03-13T12:56:52Z</time>
      </trkpt>
      <trkpt lat="43.97206" lon="5.29307">
        <ele>554.2</ele>
        <time>2021-03-13T12:57:11Z</time>
      </trkpt>
      <trkpt lat="43.97223" lon="5.29327">
        <ele>550.7</ele>
        <time>2021-03-13T12:57:30Z</time>
      </trkpt>
      <trkpt lat="43.97242" lon="5.29341">
        <ele>548.2</ele>
        <time>2021-03-13T12:57:48Z</time>
      </trkpt>
      <trkpt lat="43.97248" lon="5.29368">
        <ele>546.8</ele>
        <time>2021-03-13T12:58:05Z</time>
      </trkpt>
      <trkpt lat="43.97239" lon="5.29397">
        <ele>545.8</ele>
        <time>2021-03-13T12:58:23Z</time>
      </trkpt>
      <trkpt lat="43.97228" lon="5.29423">
        <ele>544.7</ele>
        <time>2021-03-13T12:58:39Z</time>
      </trkpt>
      <trkpt lat="43.97214" lon="5.29447">
        <ele>543.8</ele>
        <time>2021-03-13T12:58:55Z</time>
      </trkpt>
      <trkpt lat="43.972" lon="5.29471">
        <ele>541.7</ele>
        <time>2021-03-13T12:59:13Z</time>
      </trkpt>
      <trkpt lat="43.97185" lon="5.29493">
        <ele>538.4</ele>
        <time>2021-03-13T12:59:29Z</time>
      </trkpt>
      <trkpt lat="43.9717" lon="5.29514">
        <ele>534.9</ele>
        <time>2021-03-13T12:59:48Z</time>
      </trkpt>
      <trkpt lat="43.97171" lon="5.29541">
        <ele>533.9</ele>
        <time>2021-03-13T13:03:09Z</time>
      </trkpt>
      <trkpt lat="43.97179" lon="5.2957">
        <ele>534.2</ele>
        <time>2021-03-13T13:03:27Z</time>
      </trkpt>
      <trkpt lat="43.97187" lon="5.29598">
        <ele>534.9</ele>
        <time>2021-03-13T13:03:43Z</time>
      </trkpt>
      <trkpt lat="43.97196" lon="5.29626">
        <ele>535.1</ele>
        <time>2021-03-13T13:04:00Z</time>
      </trkpt>
      <trkpt lat="43.97208" lon="5.29652">
        <ele>534.6</ele>
        <time>2021-03-13T13:04:16Z</time>
      </trkpt>
      <trkpt lat="43.97228" lon="5.29666">
        <ele>534.3</ele>
        <time>2021-03-13T13:04:36Z</time>
      </trkpt>
      <trkpt lat="43.9725" lon="5.29667">
        <ele>535.1</ele>
        <time>2021-03-13T13:04:54Z</time>
      </trkpt>
      <trkpt lat="43.97272" lon="5.29662">
        <ele>536.4</ele>
        <time>2021-03-13T13:05:11Z</time>
      </trkpt>
      <trkpt lat="43.97293" lon="5.29656">
        <ele>537.8</ele>
        <time>2021-03-13T13:05:31Z</time>
      </trkpt>
      <trkpt lat="43.97315" lon="5.29659">
        <ele>538</ele>
        <time>2021-03-13T13:05:45Z</time>
      </trkpt>
      <trkpt lat="43.97316" lon="5.29657">
        <ele>538.2</ele>
        <time>2021-03-13T13:07:09Z</time>
      </trkpt>
      <trkpt lat="43.97334" lon="5.29641">
        <ele>539.6</ele>
        <time>2021-03-13T13:07:27Z</time>
      </trkpt>
      <trkpt lat="43.97337" lon="5.29634">
        <ele>540.8</ele>
        <time>2021-03-13T13:08:27Z</time>
      </trkpt>
      <trkpt lat="43.97321" lon="5.29654">
        <ele>538.5</ele>
        <time>2021-03-13T13:08:46Z</time>
      </trkpt>
      <trkpt lat="43.97305" lon="5.29672">
        <ele>537.6</ele>
        <time>2021-03-13T13:10:20Z</time>
      </trkpt>
      <trkpt lat="43.97286" lon="5.29686">
        <ele>538.8</ele>
        <time>2021-03-13T13:10:38Z</time>
      </trkpt>
      <trkpt lat="43.97266" lon="5.29696">
        <ele>539.7</ele>
        <time>2021-03-13T13:10:57Z</time>
      </trkpt>
      <trkpt lat="43.97245" lon="5.29705">
        <ele>540.4</ele>
        <time>2021-03-13T13:11:15Z</time>
      </trkpt>
      <trkpt lat="43.97223" lon="5.29709">
        <ele>540.3</ele>
        <time>2021-03-13T13:11:33Z</time>
      </trkpt>
      <trkpt lat="43.97202" lon="5.29701">
        <ele>538.5</ele>
        <time>2021-03-13T13:11:50Z</time>
      </trkpt>
      <trkpt lat="43.97181" lon="5.2969">
        <ele>536.1</ele>
        <time>2021-03-13T13:12:08Z</time>
      </trkpt>
      <trkpt lat="43.97163" lon="5.29672">
        <ele>533.7</ele>
        <time>2021-03-13T13:12:26Z</time>
      </trkpt>
      <trkpt lat="43.9715" lon="5.29648">
        <ele>534.7</ele>
        <time>2021-03-13T13:12:42Z</time>
      </trkpt>
      <trkpt lat="43.9714" lon="5.29621">
        <ele>534.2</ele>
        <time>2021-03-13T13:12:58Z</time>
      </trkpt>
      <trkpt lat="43.97131" lon="5.29594">
        <ele>532.2</ele>
        <time>2021-03-13T13:13:14Z</time>
      </trkpt>
      <trkpt lat="43.97118" lon="5.29569">
        <ele>530.8</ele>
        <time>2021-03-13T13:13:31Z</time>
      </trkpt>
      <trkpt lat="43.97102" lon="5.29546">
        <ele>529.7</ele>
        <time>2021-03-13T13:13:47Z</time>
      </trkpt>
      <trkpt lat="43.97083" lon="5.29531">
        <ele>527.8</ele>
        <time>2021-03-13T13:14:05Z</time>
      </trkpt>
      <trkpt lat="43.97062" lon="5.29518">
        <ele>526.1</ele>
        <time>2021-03-13T13:14:20Z</time>
      </trkpt>
      <trkpt lat="43.9704" lon="5.29514">
        <ele>524.4</ele>
        <time>2021-03-13T13:14:40Z</time>
      </trkpt>
      <trkpt lat="43.97018" lon="5.29511">
        <ele>522.5</ele>
        <time>2021-03-13T13:14:58Z</time>
      </trkpt>
      <trkpt lat="43.96999" lon="5.29496">
        <ele>518.6</ele>
        <time>2021-03-13T13:15:15Z</time>
      </trkpt>
      <trkpt lat="43.9698" lon="5.29482">
        <ele>520.3</ele>
        <time>2021-03-13T13:15:32Z</time>
      </trkpt>
      <trkpt lat="43.9696" lon="5.29469">
        <ele>521.1</ele>
        <time>2021-03-13T13:15:49Z</time>
      </trkpt>
      <trkpt lat="43.96938" lon="5.29464">
        <ele>520.6</ele>
        <time>2021-03-13T13:16:05Z</time>
      </trkpt>
      <trkpt lat="43.96918" lon="5.29466">
        <ele>519.6</ele>
        <time>2021-03-13T13:17:13Z</time>
      </trkpt>
      <trkpt lat="43.96898" lon="5.29473">
        <ele>517.9</ele>
        <time>2021-03-13T13:17:29Z</time>
      </trkpt>
      <trkpt lat="43.96876" lon="5.29479">
        <ele>516.6</ele>
        <time>2021-03-13T13:17:53Z</time>
      </trkpt>
      <trkpt lat="43.96853" lon="5.29484">
        <ele>515.3</ele>
        <time>2021-03-13T13:18:08Z</time>
      </trkpt>
      <trkpt lat="43.96832" lon="5.29477">
        <ele>514.4</ele>
        <time>2021-03-13T13:18:25Z</time>
      </trkpt>
      <trkpt lat="43.96811" lon="5.29467">
        <ele>512.5</ele>
        <time>2021-03-13T13:18:42Z</time>
      </trkpt>
      <trkpt lat="43.9679" lon="5.29457">
        <ele>510</ele>
        <time>2021-03-13T13:18:59Z</time>
      </trkpt>
      <trkpt lat="43.96767" lon="5.29457">
        <ele>507.4</ele>
        <time>2021-03-13T13:19:13Z</time>
      </trkpt>
      <trkpt lat="43.96746" lon="5.29462">
        <ele>505.4</ele>
        <time>2021-03-13T13:19:58Z</time>
      </trkpt>
      <trkpt lat="43.96727" lon="5.29477">
        <ele>503.3</ele>
        <time>2021-03-13T13:20:20Z</time>
      </trkpt>
      <trkpt lat="43.96705" lon="5.29483">
        <ele>499.7</ele>
        <time>2021-03-13T13:20:38Z</time>
      </trkpt>
      <trkpt lat="43.96683" lon="5.29481">
        <ele>496.6</ele>
        <time>2021-03-13T13:20:55Z</time>
      </trkpt>
      <trkpt lat="43.96661" lon="5.29486">
        <ele>492.1</ele>
        <time>2021-03-13T13:21:11Z</time>
      </trkpt>
      <trkpt lat="43.9664" lon="5.29492">
        <ele>487.5</ele>
        <time>2021-03-13T13:21:30Z</time>
      </trkpt>
      <trkpt lat="43.9662" lon="5.29496">
        <ele>483.2</ele>
        <time>2021-03-13T13:22:01Z</time>
      </trkpt>
      <trkpt lat="43.966" lon="5.29497">
        <ele>479.8</ele>
        <time>2021-03-13T13:23:33Z</time>
      </trkpt>
      <trkpt lat="43.9658" lon="5.29506">
        <ele>477.7</ele>
        <time>2021-03-13T13:24:02Z</time>
      </trkpt>
      <trkpt lat="43.96558" lon="5.29505">
        <ele>475.7</ele>
        <time>2021-03-13T13:24:23Z</time>
      </trkpt>
      <trkpt lat="43.96537" lon="5.29497">
        <ele>472.5</ele>
        <time>2021-03-13T13:24:43Z</time>
      </trkpt>
      <trkpt lat="43.96519" lon="5.2948">
        <ele>473.5</ele>
        <time>2021-03-13T13:25:03Z</time>
      </trkpt>
      <trkpt lat="43.96498" lon="5.29478">
        <ele>471.3</ele>
        <time>2021-03-13T13:25:32Z</time>
      </trkpt>
      <trkpt lat="43.96477" lon="5.29471">
        <ele>473.1</ele>
        <time>2021-03-13T13:25:52Z</time>
      </trkpt>
      <trkpt lat="43.96457" lon="5.29459">
        <ele>473.1</ele>
        <time>2021-03-13T13:26:17Z</time>
      </trkpt>
      <trkpt lat="43.96437" lon="5.29456">
        <ele>472.6</ele>
        <time>2021-03-13T13:26:49Z</time>
      </trkpt>
      <trkpt lat="43.96418" lon="5.29445">
        <ele>469.6</ele>
        <time>2021-03-13T13:27:17Z</time>
      </trkpt>
      <trkpt lat="43.964" lon="5.29428">
        <ele>465</ele>
        <time>2021-03-13T13:27:54Z</time>
      </trkpt>
      <trkpt lat="43.96385" lon="5.29408">
        <ele>464.5</ele>
        <time>2021-03-13T13:28:49Z</time>
      </trkpt>
      <trkpt lat="43.96366" lon="5.29396">
        <ele>468.2</ele>
        <time>2021-03-13T13:29:14Z</time>
      </trkpt>
      <trkpt lat="43.96345" lon="5.29396">
        <ele>467.6</ele>
        <time>2021-03-13T13:29:36Z</time>
      </trkpt>
      <trkpt lat="43.96324" lon="5.294">
        <ele>465.9</ele>
        <time>2021-03-13T13:29:51Z</time>
      </trkpt>
      <trkpt lat="43.96306" lon="5.29383">
        <ele>469.7</ele>
        <time>2021-03-13T13:30:13Z</time>
      </trkpt>
      <trkpt lat="43.9629" lon="5.29363">
        <ele>473.8</ele>
        <time>2021-03-13T13:30:38Z</time>
      </trkpt>
      <trkpt lat="43.96272" lon="5.29347">
        <ele>475.8</ele>
        <time>2021-03-13T13:30:56Z</time>
      </trkpt>
      <trkpt lat="43.96251" lon="5.29343">
        <ele>474.3</ele>
        <time>2021-03-13T13:31:20Z</time>
      </trkpt>
      <trkpt lat="43.96228" lon="5.29352">
        <ele>472.6</ele>
        <time>2021-03-13T13:31:32Z</time>
      </trkpt>
      <trkpt lat="43.96209" lon="5.29368">
        <ele>471.2</ele>
        <time>2021-03-13T13:31:44Z</time>
      </trkpt>
      <trkpt lat="43.96188" lon="5.29378">
        <ele>471.3</ele>
        <time>2021-03-13T13:31:57Z</time>
      </trkpt>
      <trkpt lat="43.96166" lon="5.29375">
        <ele>472.4</ele>
        <time>2021-03-13T13:32:13Z</time>
      </trkpt>
      <trkpt lat="43.96145" lon="5.29366">
        <ele>471.2</ele>
        <time>2021-03-13T13:32:38Z</time>
      </trkpt>
      <trkpt lat="43.96124" lon="5.29358">
        <ele>470.2</ele>
        <time>2021-03-13T13:33:01Z</time>
      </trkpt>
      <trkpt lat="43.96103" lon="5.29345">
        <ele>469.9</ele>
        <time>2021-03-13T13:33:18Z</time>
      </trkpt>
      <trkpt lat="43.96082" lon="5.2935">
        <ele>468.5</ele>
        <time>2021-03-13T13:33:34Z</time>
      </trkpt>
      <trkpt lat="43.96065" lon="5.29369">
        <ele>464.8</ele>
        <time>2021-03-13T13:33:50Z</time>
      </trkpt>
      <trkpt lat="43.96043" lon="5.2938">
        <ele>460.5</ele>
        <time>2021-03-13T13:34:07Z</time>
      </trkpt>
      <trkpt lat="43.96024" lon="5.29396">
        <ele>454.5</ele>
        <time>2021-03-13T13:34:16Z</time>
      </trkpt>
      <trkpt lat="43.96004" lon="5.29408">
        <ele>447.9</ele>
        <time>2021-03-13T13:34:30Z</time>
      </trkpt>
      <trkpt lat="43.95983" lon="5.29409">
        <ele>446.1</ele>
        <time>2021-03-13T13:34:48Z</time>
      </trkpt>
      <trkpt lat="43.9596" lon="5.29414">
        <ele>443.7</ele>
        <time>2021-03-13T13:35:04Z</time>
      </trkpt>
      <trkpt lat="43.95939" lon="5.29424">
        <ele>443.8</ele>
        <time>2021-03-13T13:35:17Z</time>
      </trkpt>
      <trkpt lat="43.95921" lon="5.29422">
        <ele>442.3</ele>
        <time>2021-03-13T13:35:38Z</time>
      </trkpt>
      <trkpt lat="43.95919" lon="5.29404">
        <ele>443.7</ele>
        <time>2021-03-13T13:36:53Z</time>
      </trkpt>
      <trkpt lat="43.95901" lon="5.29396">
        <ele>444.4</ele>
        <time>2021-03-13T13:37:58Z</time>
      </trkpt>
      <trkpt lat="43.95882" lon="5.2941">
        <ele>440.6</ele>
        <time>2021-03-13T13:38:48Z</time>
      </trkpt>
      <trkpt lat="43.95867" lon="5.29431">
        <ele>439.4</ele>
        <time>2021-03-13T13:39:05Z</time>
      </trkpt>
      <trkpt lat="43.95853" lon="5.29453">
        <ele>439.8</ele>
        <time>2021-03-13T13:39:22Z</time>
      </trkpt>
      <trkpt lat="43.95831" lon="5.29459">
        <ele>436.8</ele>
        <time>2021-03-13T13:39:34Z</time>
      </trkpt>
      <trkpt lat="43.95812" lon="5.29449">
        <ele>434.7</ele>
        <time>2021-03-13T13:39:50Z</time>
      </trkpt>
      <trkpt lat="43.95788" lon="5.29451">
        <ele>432.6</ele>
        <time>2021-03-13T13:40:05Z</time>
      </trkpt>
      <trkpt lat="43.95766" lon="5.29455">
        <ele>430.5</ele>
        <time>2021-03-13T13:40:18Z</time>
      </trkpt>
      <trkpt lat="43.95745" lon="5.29444">
        <ele>428.3</ele>
        <time>2021-03-13T13:40:33Z</time>
      </trkpt>
      <trkpt lat="43.95724" lon="5.29434">
        <ele>424.9</ele>
        <time>2021-03-13T13:40:52Z</time>
      </trkpt>
      <trkpt lat="43.95703" lon="5.29431">
        <ele>421.4</ele>
        <time>2021-03-13T13:41:17Z</time>
      </trkpt>
      <trkpt lat="43.95681" lon="5.29431">
        <ele>417.9</ele>
        <time>2021-03-13T13:41:38Z</time>
      </trkpt>
      <trkpt lat="43.9566" lon="5.29428">
        <ele>414.8</ele>
        <time>2021-03-13T13:41:54Z</time>
      </trkpt>
      <trkpt lat="43.95638" lon="5.2943">
        <ele>413</ele>
        <time>2021-03-13T13:42:08Z</time>
      </trkpt>
      <trkpt lat="43.95616" lon="5.29436">
        <ele>411.6</ele>
        <time>2021-03-13T13:42:20Z</time>
      </trkpt>
      <trkpt lat="43.95598" lon="5.2942">
        <ele>408.7</ele>
        <time>2021-03-13T13:42:43Z</time>
      </trkpt>
      <trkpt lat="43.95577" lon="5.29416">
        <ele>407.1</ele>
        <time>2021-03-13T13:43:10Z</time>
      </trkpt>
      <trkpt lat="43.95557" lon="5.29407">
        <ele>407.7</ele>
        <time>2021-03-13T13:44:14Z</time>
      </trkpt>
      <trkpt lat="43.95536" lon="5.29398">
        <ele>407.4</ele>
        <time>2021-03-13T13:44:35Z</time>
      </trkpt>
      <trkpt lat="43.95517" lon="5.29386">
        <ele>406.2</ele>
        <time>2021-03-13T13:45:14Z</time>
      </trkpt>
      <trkpt lat="43.95505" lon="5.29362">
        <ele>403.8</ele>
        <time>2021-03-13T13:45:35Z</time>
      </trkpt>
      <trkpt lat="43.95489" lon="5.29343">
        <ele>400.3</ele>
        <time>2021-03-13T13:46:00Z</time>
      </trkpt>
      <trkpt lat="43.95473" lon="5.29327">
        <ele>398.5</ele>
        <time>2021-03-13T13:46:57Z</time>
      </trkpt>
      <trkpt lat="43.95452" lon="5.29331">
        <ele>395.1</ele>
        <time>2021-03-13T13:47:41Z</time>
      </trkpt>
      <trkpt lat="43.95427" lon="5.29348">
        <ele>393</ele>
        <time>2021-03-13T13:48:02Z</time>
      </trkpt>
      <trkpt lat="43.954" lon="5.29354">
        <ele>390.9</ele>
        <time>2021-03-13T13:48:49Z</time>
      </trkpt>
      <trkpt lat="43.95381" lon="5.29343">
        <ele>388.1</ele>
        <time>2021-03-13T13:49:06Z</time>
      </trkpt>
      <trkpt lat="43.95361" lon="5.29333">
        <ele>385.3</ele>
        <time>2021-03-13T13:49:30Z</time>
      </trkpt>
      <trkpt lat="43.95339" lon="5.29337">
        <ele>383.8</ele>
        <time>2021-03-13T13:49:51Z</time>
      </trkpt>
      <trkpt lat="43.95318" lon="5.29342">
        <ele>382.3</ele>
        <time>2021-03-13T13:50:18Z</time>
      </trkpt>
      <trkpt lat="43.95296" lon="5.29343">
        <ele>380.2</ele>
        <time>2021-03-13T13:50:46Z</time>
      </trkpt>
      <trkpt lat="43.95275" lon="5.29346">
        <ele>378.3</ele>
        <time>2021-03-13T13:51:21Z</time>
      </trkpt>
      <trkpt lat="43.95254" lon="5.29345">
        <ele>376.1</ele>
        <time>2021-03-13T13:51:41Z</time>
      </trkpt>
      <trkpt lat="43.95233" lon="5.29339">
        <ele>372.5</ele>
        <time>2021-03-13T13:52:16Z</time>
      </trkpt>
      <trkpt lat="43.95212" lon="5.29339">
        <ele>369</ele>
        <time>2021-03-13T13:52:49Z</time>
      </trkpt>
      <trkpt lat="43.95192" lon="5.29351">
        <ele>366.2</ele>
        <time>2021-03-13T13:53:11Z</time>
      </trkpt>
      <trkpt lat="43.95172" lon="5.29359">
        <ele>363.1</ele>
        <time>2021-03-13T13:53:55Z</time>
      </trkpt>
      <trkpt lat="43.9515" lon="5.29361">
        <ele>360.6</ele>
        <time>2021-03-13T13:54:22Z</time>
      </trkpt>
      <trkpt lat="43.9513" lon="5.29369">
        <ele>358.9</ele>
        <time>2021-03-13T13:54:47Z</time>
      </trkpt>
      <trkpt lat="43.9511" lon="5.29365">
        <ele>356.8</ele>
        <time>2021-03-13T13:55:22Z</time>
      </trkpt>
      <trkpt lat="43.95089" lon="5.29369">
        <ele>354.6</ele>
        <time>2021-03-13T13:55:51Z</time>
      </trkpt>
      <trkpt lat="43.95068" lon="5.29367">
        <ele>351.6</ele>
        <time>2021-03-13T13:56:16Z</time>
      </trkpt>
      <trkpt lat="43.95047" lon="5.29368">
        <ele>348.1</ele>
        <time>2021-03-13T13:56:36Z</time>
      </trkpt>
      <trkpt lat="43.95024" lon="5.2937">
        <ele>344.5</ele>
        <time>2021-03-13T13:56:58Z</time>
      </trkpt>
      <trkpt lat="43.95003" lon="5.29373">
        <ele>341.3</ele>
        <time>2021-03-13T13:57:16Z</time>
      </trkpt>
      <trkpt lat="43.94982" lon="5.29367">
        <ele>338</ele>
        <time>2021-03-13T13:57:48Z</time>
      </trkpt>
      <trkpt lat="43.94962" lon="5.2936">
        <ele>334.9</ele>
        <time>2021-03-13T13:58:18Z</time>
      </trkpt>
      <trkpt lat="43.94941" lon="5.29363">
        <ele>332.1</ele>
        <time>2021-03-13T13:59:07Z</time>
      </trkpt>
      <trkpt lat="43.9492" lon="5.29359">
        <ele>329</ele>
        <time>2021-03-13T13:59:33Z</time>
      </trkpt>
      <trkpt lat="43.94899" lon="5.29351">
        <ele>326.1</ele>
        <time>2021-03-13T14:00:00Z</time>
      </trkpt>
      <trkpt lat="43.94878" lon="5.29352">
        <ele>323.4</ele>
        <time>2021-03-13T14:00:39Z</time>
      </trkpt>
      <trkpt lat="43.94858" lon="5.29362">
        <ele>321</ele>
        <time>2021-03-13T14:01:06Z</time>
      </trkpt>
      <trkpt lat="43.94837" lon="5.29364">
        <ele>318.2</ele>
        <time>2021-03-13T14:01:57Z</time>
      </trkpt>
      <trkpt lat="43.94818" lon="5.29358">
        <ele>315.4</ele>
        <time>2021-03-13T14:02:44Z</time>
      </trkpt>
      <trkpt lat="43.94799" lon="5.29345">
        <ele>312.4</ele>
        <time>2021-03-13T14:03:11Z</time>
      </trkpt>
      <trkpt lat="43.94781" lon="5.29333">
        <ele>309.4</ele>
        <time>2021-03-13T14:03:41Z</time>
      </trkpt>
      <trkpt lat="43.9476" lon="5.29325">
        <ele>306.7</ele>
        <time>2021-03-13T14:04:04Z</time>
      </trkpt>
      <trkpt lat="43.94739" lon="5.29316">
        <ele>304.1</ele>
        <time>2021-03-13T14:04:25Z</time>
      </trkpt>
      <trkpt lat="43.9472" lon="5.29301">
        <ele>301.8</ele>
        <time>2021-03-13T14:04:45Z</time>
      </trkpt>
      <trkpt lat="43.94698" lon="5.29293">
        <ele>298.7</ele>
        <time>2021-03-13T14:05:09Z</time>
      </trkpt>
      <trkpt lat="43.94677" lon="5.29287">
        <ele>295.6</ele>
        <time>2021-03-13T14:05:27Z</time>
      </trkpt>
      <trkpt lat="43.94668" lon="5.29297">
        <ele>294.2</ele>
        <time>2021-03-13T14:09:43Z</time>
      </trkpt>
      <trkpt lat="43.9467" lon="5.29326">
        <ele>294.4</ele>
        <time>2021-03-13T14:10:17Z</time>
      </trkpt>
      <trkpt lat="43.9467" lon="5.29355">
        <ele>294.5</ele>
        <time>2021-03-13T14:10:51Z</time>
      </trkpt>
      <trkpt lat="43.9466" lon="5.29378">
        <ele>293.4</ele>
        <time>2021-03-13T14:11:13Z</time>
      </trkpt>
      <trkpt lat="43.94643" lon="5.29385">
        <ele>291.8</ele>
        <time>2021-03-13T14:11:56Z</time>
      </trkpt>
      <trkpt lat="43.94639" lon="5.29415">
        <ele>291.3</ele>
        <time>2021-03-13T14:12:17Z</time>
      </trkpt>
      <trkpt lat="43.94633" lon="5.29436">
        <ele>290.5</ele>
        <time>2021-03-13T14:12:44Z</time>
      </trkpt>
      <trkpt lat="43.9463" lon="5.29467">
        <ele>289.6</ele>
        <time>2021-03-13T14:13:04Z</time>
      </trkpt>
      <trkpt lat="43.94615" lon="5.29489">
        <ele>287.4</ele>
        <time>2021-03-13T14:13:23Z</time>
      </trkpt>
      <trkpt lat="43.94597" lon="5.29499">
        <ele>284.8</ele>
        <time>2021-03-13T14:13:48Z</time>
      </trkpt>
      <trkpt lat="43.94587" lon="5.29511">
        <ele>283.6</ele>
        <time>2021-03-13T14:14:37Z</time>
      </trkpt>
      <trkpt lat="43.9457" lon="5.29492">
        <ele>282.6</ele>
        <time>2021-03-13T14:14:57Z</time>
      </trkpt>
      <trkpt lat="43.94554" lon="5.29488">
        <ele>281.9</ele>
        <time>2021-03-13T14:18:14Z</time>
      </trkpt>
      <trkpt lat="43.9455" lon="5.2949">
        <ele>281.6</ele>
        <time>2021-03-13T14:18:18Z</time>
      </trkpt>
    </trkseg>
  </trk>
</gpx>